KNQA/NQA METAR and TAF weather

Enter ICAO airport designator
Station Type Date Time Source
KNQA METAR 2018/12/13 08:15 UTC NOAA

KNQA 130815Z AUTO 13006KT 10SM SCT037 OVC047 09/06 A2999 RMK A01


Station Type Date Time Source
KNQA Decoded METAR 2018/12/13 08:15 UTC NOAA

Millington, Millington Municipal Airport, TN, United States (KNQA) 35-21-24N 089-52-13W
Dec 13, 2018 - 03:15 AM EST / 2018.12.13 0815 UTC
Wind: from the SE (130 degrees) at 7 MPH (6 KT):0
Visibility: 10 mile(s):0
Sky conditions: overcast
Temperature: 48 F (9 C)
Dew Point: 42 F (6 C)
Relative Humidity: 81%
Pressure (altimeter): 29.99 in. Hg (1015 hPa)
ob: KNQA 130815Z AUTO 13006KT 10SM SCT037 OVC047 09/06 A2999 RMK A01
cycle: 8

Station Type Date Time Source
KNQA TAF UTC NOAA

Error!


Example: see airport list